Flight Track Log - Related Links

Times and Time Zones

All times are in EDT time to prevent confusion due to time zone crossing. See the N534QS flight status page for this flight to view local times or setup timezone preferences in your user account.


Time Position Orientation Groundspeed Altitude Reporting Facility
EDT Latitude Longitude Course Direction KTS MPH feet Rate Location/Type
Mon 12:28:10 PM 41.7500 -87.7833 201° Southwest 187 215 2,800  Level Chicago TRACON
Mon 12:29:28 PM 41.6822 -87.8425 213° Southwest 249 287 7,300 3,600 Climbing Chicago Center
Mon 12:30:30 PM 41.6119 -87.8972 210° Southwest 287 330 11,200 2,352 Climbing Chicago Center
Mon 12:31:33 PM 41.5561 -87.9731 225° Southwest 292 336 12,200 1,440 Climbing Chicago Center
Mon 12:32:35 PM 41.4817 -88.0422 215° Southwest 338 389 14,200 2,516 Climbing Chicago Center
Mon 12:33:00 PM 41.2822 -88.2256 201° Southwest  Level FlightAware Approximate
Mon 12:33:37 PM 41.3692 -88.1056 203° Southwest 376 433 17,400  Level Chicago Center
Mon 12:34:39 PM 41.2653 -88.1603 202° Southwest 403 464 20,400 2,613 Climbing Chicago Center
Mon 12:35:41 PM 41.1572 -88.2194 202° Southwest 416 479 22,800 2,371 Climbing Chicago Center
Mon 12:36:43 PM 41.0197 -88.2944 202° Southwest 443 510 25,300 2,177 Climbing Chicago Center
Mon 12:37:45 PM 40.8983 -88.3572 201° Southwest 466 536 27,300 2,081 Climbing Chicago Center
Mon 12:38:47 PM 40.7767 -88.4278 204° Southwest 477 549 29,600 2,613 Climbing Chicago Center
Mon 12:39:49 PM 40.6725 -88.5294 217° Southwest 467 537 32,700 2,419 Climbing Chicago Center
Mon 12:40:51 PM 40.5742 -88.6394 220° Southwest 466 536 34,600 2,129 Climbing Chicago Center
Mon 12:41:53 PM 40.4644 -88.7600 220° Southwest 471 542 37,100 2,256 Climbing Chicago Center
Mon 12:42:56 PM 40.3642 -88.8703 220° Southwest 470 541 39,300 1,824 Climbing Chicago Center
Mon 12:43:58 PM 40.2633 -88.9808 220° Southwest 470 541 40,900 1,597 Climbing Chicago Center
Mon 12:45:00 PM 40.1622 -89.0928 220° Southwest 474 545 42,600 1,050 Climbing Chicago Center
Mon 12:45:58 PM 40.0592 -89.2036 219° Southwest 473 544 43,000 200 Climbing Kansas City Center
Mon 12:47:00 PM 39.9547 -89.3167 220° Southwest 478 550 43,000  Level Kansas City Center
Mon 12:48:02 PM 39.8403 -89.4631 225° Southwest 478 550 43,000  Level Kansas City Center
Mon 12:49:04 PM 39.7758 -89.6083 240° Southwest 465 535 43,000  Level Kansas City Center
Mon 12:50:06 PM 39.7267 -89.7683 248° West 471 542 43,000  Level Kansas City Center
Mon 12:51:08 PM 39.6786 -89.9194 248° West 470 541 43,000  Level Kansas City Center
Mon 12:52:10 PM 39.6283 -90.0756 247° West 471 542 43,000  Level Kansas City Center
Mon 12:53:12 PM 39.5781 -90.2331 248° West 474 545 43,000  Level Kansas City Center
Mon 12:54:14 PM 39.5169 -90.4222 247° West 476 548 43,000  Level Kansas City Center
Mon 12:55:16 PM 39.4383 -90.5594 233° Southwest 477 549 43,000  Level Kansas City Center
Mon 12:56:18 PM 39.3603 -90.6947 233° Southwest 474 545 43,000  Level Kansas City Center
Mon 12:57:21 PM 39.3014 -90.8431 243° Southwest 469 540 43,000  Level Kansas City Center
Mon 12:58:23 PM 39.2503 -90.9978 247° West 471 542 43,000  Level Kansas City Center
Mon 12:59:26 PM 39.1911 -91.1861 248° West 474 545 43,000  Level Kansas City Center
Mon 01:00:28 PM 39.1381 -91.3439 247° West 482 555 43,000  Level Kansas City Center
Mon 01:01:30 PM 39.0856 -91.5003 247° West 480 552 43,000  Level Kansas City Center
Mon 01:02:32 PM 39.0328 -91.6564 247° West 479 551 43,000  Level Kansas City Center
Mon 01:03:34 PM 38.9722 -91.8342 246° West 478 550 43,000  Level Kansas City Center
Mon 01:04:36 PM 38.9194 -91.9914 247° West 479 551 43,000  Level Kansas City Center
Mon 01:06:40 PM 38.8125 -92.3044 246° West 479 551 43,000  Level Kansas City Center
Mon 01:07:42 PM 38.7472 -92.4900 246° West 478 550 43,000  Level Kansas City Center
Mon 01:08:44 PM 38.6928 -92.6458 246° West 479 551 43,000  Level Kansas City Center
Mon 01:09:46 PM 38.6369 -92.8053 246° West 486 559 43,000  Level Kansas City Center
Mon 01:10:48 PM 38.5814 -92.9619 246° West 488 562 43,000  Level Kansas City Center
Mon 01:11:50 PM 38.5261 -93.1169 246° West 485 558 43,000  Level Kansas City Center
Mon 01:12:52 PM 38.4622 -93.2983 246° West 474 545 43,000  Level Kansas City Center
Mon 01:13:54 PM 38.4092 -93.4461 245° Southwest 465 535 43,000  Level Kansas City Center
Mon 01:14:56 PM 38.3572 -93.5933 246° West 460 529 43,000  Level Kansas City Center
Mon 01:15:58 PM 38.3042 -93.7422 246° West 461 531 43,000  Level Kansas City Center
Mon 01:17:00 PM 38.2506 -93.8908 245° Southwest 462 532 43,000  Level Kansas City Center
Mon 01:18:02 PM 38.1964 -94.0372 245° Southwest 460 529 43,000  Level Kansas City Center
Mon 01:19:04 PM 38.1331 -94.2100 245° Southwest 461 531 43,000  Level Kansas City Center
Mon 01:20:06 PM 38.0811 -94.3511 245° Southwest 460 529 43,000  Level Kansas City Center
Mon 01:21:08 PM 38.0303 -94.4892 245° Southwest 455 524 43,000  Level Kansas City Center
Mon 01:22:10 PM 37.9703 -94.6522 245° Southwest 455 524 43,000  Level Kansas City Center
Mon 01:23:12 PM 37.9175 -94.7939 245° Southwest 460 529 43,000  Level Kansas City Center
Mon 01:24:15 PM 37.8564 -94.9575 245° Southwest 460 529 43,000  Level Kansas City Center
Mon 01:25:17 PM 37.7992 -95.1086 244° Southwest 458 527 43,000  Level Kansas City Center
Mon 01:26:19 PM 37.7444 -95.2517 244° Southwest 455 524 43,000  Level Kansas City Center
Mon 01:27:21 PM 37.6903 -95.3961 245° Southwest 455 524 43,000  Level Kansas City Center
Mon 01:28:23 PM 37.6350 -95.5411 244° Southwest 457 526 43,000  Level Kansas City Center
Mon 01:29:25 PM 37.5792 -95.6856 244° Southwest 458 527 43,000  Level Kansas City Center
Mon 01:30:27 PM 37.5117 -95.8603 244° Southwest 461 531 43,000  Level Kansas City Center
Mon 01:31:29 PM 37.4558 -96.0050 244° Southwest 462 532 43,000  Level Kansas City Center
Mon 01:32:31 PM 37.3994 -96.1478 244° Southwest 459 528 43,000  Level Kansas City Center
Mon 01:33:33 PM 37.3444 -96.2900 244° Southwest 456 525 43,000  Level Kansas City Center
Mon 01:34:35 PM 37.2819 -96.4467 243° Southwest 459 528 43,000  Level Kansas City Center
Mon 01:35:37 PM 37.2244 -96.5908 243° Southwest 460 529 43,000  Level Kansas City Center
Mon 01:36:39 PM 37.1675 -96.7353 244° Southwest 460 529 43,000  Level Kansas City Center
Mon 01:37:41 PM 37.1097 -96.8786 243° Southwest 459 528 43,000  Level Kansas City Center
Mon 01:38:43 PM 37.0525 -97.0233 244° Southwest 462 532 43,000  Level Kansas City Center
Mon 01:39:45 PM 36.9942 -97.1681 243° Southwest 463 533 43,000  Level Kansas City Center
Mon 01:40:47 PM 36.9239 -97.3392 243° Southwest 461 531 43,000  Level Kansas City Center
Mon 01:41:49 PM 36.8644 -97.4872 243° Southwest 468 539 43,000  Level Kansas City Center
Mon 01:42:51 PM 36.8036 -97.6353 243° Southwest 474 545 43,000  Level Kansas City Center
Mon 01:43:53 PM 36.7403 -97.7886 243° Southwest 471 542 43,000  Level Kansas City Center
Mon 01:44:55 PM 36.6792 -97.9344 242° Southwest 472 543 43,000  Level Kansas City Center
Mon 01:45:57 PM 36.6200 -98.0775 243° Southwest 468 539 43,000  Level Kansas City Center
Mon 01:46:59 PM 36.5597 -98.2211 242° Southwest 467 537 43,000  Level Kansas City Center
Mon 01:48:01 PM 36.5033 -98.3656 244° Southwest 464 534 43,000  Level Kansas City Center
Mon 01:49:03 PM 36.4317 -98.5331 242° Southwest 461 531 43,000  Level Kansas City Center
Mon 01:50:05 PM 36.3733 -98.6736 243° Southwest 458 527 43,000  Level Kansas City Center
Mon 01:51:07 PM 36.3133 -98.8131 242° Southwest 457 526 43,000  Level Kansas City Center
Mon 01:52:09 PM 36.2539 -98.9533 242° Southwest 460 529 43,000  Level Kansas City Center
Mon 01:53:11 PM 36.1889 -99.1086 243° Southwest 458 527 43,000  Level Kansas City Center
Mon 01:54:13 PM 36.1319 -99.2472 243° Southwest 455 524 43,000  Level Kansas City Center
Mon 01:55:15 PM 36.0642 -99.3969 241° Southwest 467 537 43,000  Level Kansas City Center
Mon 01:57:21 PM 35.9422 -99.6739 242° Southwest 462 532 43,000  Level Albuquerque Center
Mon 01:58:23 PM 35.8814 -99.8139 242° Southwest 463 533 43,000  Level Albuquerque Center
Mon 01:58:59 PM 35.8442 -99.8983 241° Southwest 463 533 43,000  Level Kansas City Center
Mon 02:00:03 PM 35.7703 -100.0672 242° Southwest 466 536 43,000  Level Kansas City Center
Mon 02:01:05 PM 35.7092 -100.2089 242° Southwest 468 539 43,000  Level Kansas City Center
Mon 02:02:07 PM 35.6431 -100.3542 241° Southwest 465 535 43,000  Level Kansas City Center
Mon 02:03:09 PM 35.5806 -100.4939 241° Southwest 466 536 43,000  Level Kansas City Center
Mon 02:04:34 PM 35.4939 -100.6889 241° Southwest 466 536 43,000  Level Albuquerque Center
Mon 02:05:36 PM 35.4294 -100.8269 240° Southwest 466 536 43,000  Level Albuquerque Center
Mon 02:06:38 PM 35.3669 -100.9664 241° Southwest 467 537 43,000  Level Albuquerque Center
Mon 02:07:40 PM 35.2908 -101.1344 241° Southwest 470 541 43,000  Level Albuquerque Center
Mon 02:08:42 PM 35.2272 -101.2728 241° Southwest 467 537 43,000  Level Albuquerque Center
Mon 02:09:43 PM 35.1672 -101.4069 241° Southwest 468 539 43,000  Level Albuquerque Center
Mon 02:10:45 PM 35.1053 -101.5456 241° Southwest 465 535 43,000  Level Albuquerque Center
Mon 02:11:47 PM 35.0367 -101.6858 239° Southwest 470 541 43,000  Level Albuquerque Center
Mon 02:12:49 PM 34.9681 -101.8333 240° Southwest 469 540 43,000  Level Albuquerque Center
Mon 02:13:51 PM 34.9039 -101.9719 241° Southwest 469 540 43,000  Level Albuquerque Center
Mon 02:14:52 PM 34.8400 -102.1089 240° Southwest 465 535 43,000  Level Albuquerque Center
Mon 02:15:54 PM 34.7758 -102.2461 240° Southwest 466 536 43,000  Level Albuquerque Center
Mon 02:16:56 PM 34.7106 -102.3856 240° Southwest 472 543 43,000  Level Albuquerque Center
Mon 02:17:58 PM 34.6317 -102.5522 240° Southwest 475 547 43,000  Level Albuquerque Center
Mon 02:19:00 PM 34.5683 -102.6842 240° Southwest 472 543 43,000 -780 Level Albuquerque Center
Mon 02:20:01 PM 34.5031 -102.8217 240° Southwest 467 537 41,400 -1,756 Descending Albuquerque Center
Mon 02:21:03 PM 34.4444 -102.9708 245° Southwest 476 548 39,400 -1,984 Descending Albuquerque Center
Mon 02:22:05 PM 34.3900 -103.1186 246° West 480 552 37,300 -2,129 Descending Albuquerque Center
Mon 02:23:07 PM 34.3331 -103.2694 245° Southwest 485 558 35,000 -2,439 Descending Albuquerque Center
Mon 02:24:08 PM 34.2667 -103.4458 246° West 488 562 32,300 -2,244 Descending Albuquerque Center
Mon 02:25:10 PM 34.2189 -103.5714 245° Southwest 492 566 30,400 -2,226 Descending Albuquerque Center
Mon 02:26:12 PM 34.1478 -103.7556 245° Southwest 500 575 27,700 -2,468 Descending Albuquerque Center
Mon 02:27:14 PM 34.0911 -103.9042 245° Southwest 491 565 25,300 -2,274 Descending Albuquerque Center
Mon 02:28:16 PM 34.0381 -104.0419 245° Southwest 466 536 23,000 -2,341 Descending Albuquerque Center
Mon 02:29:17 PM 33.9819 -104.1872 245° Southwest 446 513 20,500 -2,585 Descending Albuquerque Center
Mon 02:30:19 PM 33.9336 -104.3111 245° Southwest 416 479 17,700 -2,903 Descending Albuquerque Center
Mon 02:31:21 PM 33.8858 -104.4328 245° Southwest 406 467 14,500 -2,855 Descending Albuquerque Center
Mon 02:32:23 PM 33.8369 -104.5564 245° Southwest 384 442 11,800 -1,317 Descending Albuquerque Center
Mon 02:33:24 PM 33.7958 -104.6625 245° Southwest 355 409 11,800  Level Albuquerque Center
Mon 02:34:26 PM 33.7561 -104.7586 244° Southwest 305 351 11,800  Level Albuquerque Center
Mon 02:35:28 PM 33.7194 -104.8522 245° Southwest 309 356 11,800  Level Albuquerque Center
Mon 02:36:30 PM 33.6831 -104.9439 245° Southwest 309 356 11,800  Level Albuquerque Center
Mon 02:37:31 PM 33.6442 -105.0425 245° Southwest 306 352 11,800  Level Albuquerque Center
Mon 02:38:33 PM 33.6136 -105.1181 244° Southwest 250 288 11,800  Level Albuquerque Center

Login

Don't have an account? Register now (free) for customized features, flight alerts, and more!